createdAt,value
2019-03-06T00:00:30.502Z,94681.35
2019-03-06T00:02:59.256Z,94683.86
2019-03-06T00:05:28.006Z,94686.41
2019-03-06T00:07:56.990Z,94693.16
2019-03-06T00:10:30.002Z,94706.20
2019-03-06T00:12:58.723Z,94702.39
2019-03-06T00:15:27.707Z,94697.78
2019-03-06T00:17:56.718Z,94694.39
2019-03-06T00:20:25.384Z,94692.28
2019-03-06T00:22:54.131Z,94687.70
2019-03-06T00:25:22.777Z,94684.75
2019-03-06T00:27:51.473Z,94680.98
2019-03-06T00:30:20.843Z,94695.28
2019-03-06T00:32:49.812Z,94688.98
2019-03-06T00:35:28.880Z,94691.53
2019-03-06T00:37:57.474Z,94697.88
2019-03-06T00:40:36.777Z,94697.47
2019-03-06T00:43:05.504Z,94695.38
2019-03-06T00:45:34.153Z,94698.30
2019-03-06T00:48:02.787Z,94698.73
2019-03-06T00:50:31.508Z,94695.78
2019-03-06T00:53:00.313Z,94689.05
2019-03-06T00:55:28.948Z,94696.23
2019-03-06T00:57:57.692Z,94701.70
2019-03-06T01:00:27.062Z,94691.16
2019-03-06T01:02:55.919Z,94697.47
2019-03-06T01:05:25.291Z,94691.56
2019-03-06T01:07:54.299Z,94689.45
2019-03-06T01:10:23.325Z,94687.75
2019-03-06T01:12:52.348Z,94692.83
2019-03-06T01:15:21.276Z,94695.77
2019-03-06T01:17:50.314Z,94688.63
2019-03-06T01:20:19.011Z,94693.27
2019-03-06T01:22:47.848Z,94696.64
2019-03-06T01:25:21.084Z,94706.75
2019-03-06T01:27:49.880Z,94703.33
2019-03-06T01:30:21.554Z,94701.20
2019-03-06T01:33:00.834Z,94706.66
2019-03-06T01:35:31.144Z,94718.47
2019-03-06T01:38:17.986Z,94709.61
2019-03-06T01:41:03.547Z,94707.05
2019-03-06T01:43:45.638Z,94702.83
2019-03-06T01:46:14.695Z,94705.31
2019-03-06T01:48:43.417Z,94710.81
2019-03-06T01:51:12.214Z,94715.05
2019-03-06T01:53:40.902Z,94714.21
2019-03-06T01:56:10.002Z,94716.78
2019-03-06T01:58:38.783Z,94720.59
2019-03-06T02:01:07.889Z,94718.05
2019-03-06T02:03:38.981Z,94720.17
2019-03-06T02:06:07.863Z,94721.88
2019-03-06T02:08:36.694Z,94730.73
2019-03-06T02:11:05.328Z,94732.43
2019-03-06T02:13:34.072Z,94730.33
2019-03-06T02:16:02.769Z,94731.59
2019-03-06T02:18:31.390Z,94732.00
2019-03-06T02:21:00.367Z,94725.70
2019-03-06T02:23:28.996Z,94732.43
2019-03-06T02:25:57.563Z,94732.45
2019-03-06T02:28:26.224Z,94742.99
2019-03-06T02:30:54.940Z,94743.41
2019-03-06T02:33:24.005Z,94748.45
2019-03-06T02:35:52.681Z,94754.80
2019-03-06T02:38:21.357Z,94757.75
2019-03-06T02:40:50.097Z,94754.82
2019-03-06T02:43:18.796Z,94754.41
2019-03-06T02:45:47.546Z,94759.04
2019-03-06T02:48:16.307Z,94760.73
2019-03-06T02:50:45.043Z,94758.19
2019-03-06T02:53:13.682Z,94767.44
2019-03-06T02:55:42.340Z,94765.36
2019-03-06T02:58:12.627Z,94762.85
2019-03-06T03:00:48.882Z,94774.66
2019-03-06T03:03:25.076Z,94767.47
2019-03-06T03:06:12.721Z,94773.37
2019-03-06T03:08:41.466Z,94778.02
2019-03-06T03:11:10.414Z,94773.80
2019-03-06T03:13:39.086Z,94778.01
2019-03-06T03:16:08.110Z,94778.84
2019-03-06T03:18:36.890Z,94793.61
2019-03-06T03:21:05.563Z,94788.55
2019-03-06T03:23:34.120Z,94791.08
2019-03-06T03:26:02.811Z,94797.40
2019-03-06T03:28:31.558Z,94797.01
2019-03-06T03:31:00.118Z,94795.70
2019-03-06T03:33:29.565Z,94800.77
2019-03-06T03:35:58.265Z,94803.31
2019-03-06T03:38:26.958Z,94817.19
2019-03-06T03:40:55.622Z,94811.30
2019-03-06T03:43:24.300Z,94818.00
2019-03-06T03:45:53.618Z,94819.70
2019-03-06T03:48:22.332Z,94831.48
2019-03-06T03:50:50.995Z,94828.13
2019-03-06T03:53:19.667Z,94839.48
2019-03-06T03:55:48.384Z,94845.41
2019-03-06T03:58:17.108Z,94843.31
2019-03-06T04:00:45.846Z,94842.52
2019-03-06T04:03:14.426Z,94850.92
2019-03-06T04:05:43.078Z,94853.06
2019-03-06T04:08:11.812Z,94855.16
2019-03-06T04:10:40.752Z,94860.61
2019-03-06T04:13:09.406Z,94864.38
2019-03-06T04:15:38.122Z,94870.29
2019-03-06T04:18:06.961Z,94874.08
2019-03-06T04:20:35.581Z,94882.91
2019-03-06T04:23:04.353Z,94891.75
2019-03-06T04:25:33.378Z,94901.85
2019-03-06T04:28:02.081Z,94901.37
2019-03-06T04:30:30.860Z,94900.91
2019-03-06T04:32:59.488Z,94900.91
2019-03-06T04:35:28.185Z,94909.76
2019-03-06T04:37:56.783Z,94916.89
2019-03-06T04:40:25.456Z,94919.02
2019-03-06T04:42:54.093Z,94921.97
2019-03-06T04:45:22.768Z,94927.84
2019-03-06T04:47:51.481Z,94937.51
2019-03-06T04:50:20.150Z,94945.95
2019-03-06T04:52:48.856Z,94944.27
2019-03-06T04:55:17.601Z,94945.14
2019-03-06T04:57:46.436Z,94950.61
2019-03-06T05:00:16.546Z,94956.08
2019-03-06T05:02:45.157Z,94946.41
2019-03-06T05:05:13.854Z,94962.83
2019-03-06T05:07:42.481Z,94961.53
2019-03-06T05:10:14.060Z,94982.14
2019-03-06T05:12:42.878Z,94980.41
2019-03-06T05:15:16.557Z,94979.14
2019-03-06T05:18:02.093Z,94988.38
2019-03-06T05:20:30.765Z,94990.06
2019-03-06T05:22:59.456Z,94990.48
2019-03-06T05:25:28.451Z,94993.81
2019-03-06T05:27:57.063Z,94988.73
2019-03-06T05:30:27.335Z,95000.52
2019-03-06T05:32:58.848Z,95005.55
2019-03-06T05:35:32.356Z,95005.55
2019-03-06T05:38:06.932Z,95011.50
2019-03-06T05:40:35.647Z,95009.42
2019-03-06T05:43:04.408Z,95019.52
2019-03-06T05:45:33.038Z,95015.76
2019-03-06T05:48:02.074Z,95024.19
2019-03-06T05:50:30.762Z,95022.05
2019-03-06T05:52:59.378Z,95025.00
2019-03-06T05:55:27.947Z,95025.84
2019-03-06T05:57:56.839Z,95035.16
2019-03-06T06:00:27.699Z,95039.79
2019-03-06T06:02:56.347Z,95037.70
2019-03-06T06:05:24.971Z,95041.13
2019-03-06T06:07:53.654Z,95043.28
2019-03-06T06:10:22.311Z,95046.66
2019-03-06T06:12:51.133Z,95053.84
2019-03-06T06:15:19.817Z,95054.31
2019-03-06T06:17:48.506Z,95057.78
2019-03-06T06:20:17.100Z,95063.38
2019-03-06T06:23:05.655Z,95071.05
2019-03-06T06:25:37.453Z,95066.88
2019-03-06T06:28:06.181Z,95070.36
2019-03-06T06:30:35.075Z,95064.94
2019-03-06T06:33:03.644Z,95069.70
2019-03-06T06:35:32.228Z,95069.78
2019-03-06T06:38:00.767Z,95076.16
2019-03-06T06:40:29.404Z,95082.53
2019-03-06T06:42:58.170Z,95091.41
2019-03-06T06:45:26.774Z,95090.52
2019-03-06T06:48:16.198Z,95092.16
2019-03-06T06:50:47.901Z,95089.66
2019-03-06T06:53:34.510Z,95098.09
2019-03-06T06:56:18.214Z,95103.59
2019-03-06T06:59:01.870Z,95107.85
2019-03-06T07:02:05.431Z,95118.00
2019-03-06T07:05:04.187Z,95128.53
2019-03-06T07:07:34.943Z,95125.53
2019-03-06T07:10:11.201Z,95133.19
2019-03-06T07:12:50.451Z,95127.74
2019-03-06T07:15:20.720Z,95132.00
2019-03-06T07:17:50.971Z,95144.72
2019-03-06T07:20:21.297Z,95148.61
2019-03-06T07:23:00.334Z,95140.66
2019-03-06T07:25:33.228Z,95148.74
2019-03-06T07:28:09.495Z,95152.64
2019-03-06T07:30:39.784Z,95154.73
2019-03-06T07:33:10.068Z,95154.30
2019-03-06T07:35:56.638Z,95160.26
2019-03-06T07:38:25.722Z,95155.18
2019-03-06T07:41:08.249Z,95166.14
2019-03-06T07:43:47.357Z,95172.14
2019-03-06T07:46:23.762Z,95162.49
2019-03-06T07:48:59.860Z,95168.86
2019-03-06T07:51:41.943Z,95174.05
2019-03-06T07:54:14.950Z,95181.77
2019-03-06T07:56:46.913Z,95173.39
2019-03-06T07:59:15.450Z,95172.56
2019-03-06T08:01:49.564Z,95175.98
2019-03-06T08:04:18.214Z,95184.02
2019-03-06T08:06:48.469Z,95194.14
2019-03-06T08:09:19.264Z,95190.34
2019-03-06T08:11:49.696Z,95198.84
2019-03-06T08:14:35.314Z,95195.45
2019-03-06T08:17:09.421Z,95206.89
2019-03-06T08:19:45.483Z,95211.95
2019-03-06T08:22:15.685Z,95216.20
2019-03-06T08:24:45.867Z,95206.92
2019-03-06T08:27:14.367Z,95217.13
2019-03-06T08:29:42.981Z,95219.66
2019-03-06T08:32:13.230Z,95220.06
2019-03-06T08:34:41.866Z,95222.98
2019-03-06T08:37:10.411Z,95230.20
2019-03-06T08:39:38.950Z,95233.08
2019-03-06T08:42:07.585Z,95234.78
2019-03-06T08:44:36.442Z,95233.94
2019-03-06T08:47:18.890Z,95239.86
2019-03-06T08:49:51.523Z,95241.98
2019-03-06T08:52:24.639Z,95244.09
2019-03-06T08:54:57.959Z,95242.00
2019-03-06T08:57:28.259Z,95242.06
2019-03-06T09:00:06.963Z,95246.28
2019-03-06T09:02:40.251Z,95251.80
2019-03-06T09:05:15.173Z,95246.73
2019-03-06T09:07:45.570Z,95241.64
2019-03-06T09:10:19.715Z,95246.38
2019-03-06T09:12:57.092Z,95237.09
2019-03-06T09:15:27.366Z,95247.74
2019-03-06T09:18:12.621Z,95239.68
2019-03-06T09:20:45.705Z,95248.12
2019-03-06T09:23:25.099Z,95242.60
2019-03-06T09:25:56.785Z,95238.80
2019-03-06T09:28:29.735Z,95248.14
2019-03-06T09:30:59.837Z,95243.47
2019-03-06T09:33:35.874Z,95239.17
2019-03-06T09:36:06.172Z,95240.02
2019-03-06T09:38:45.585Z,95247.09
2019-03-06T09:41:19.308Z,95254.20
2019-03-06T09:43:52.562Z,95257.16
2019-03-06T09:46:25.762Z,95253.51
2019-03-06T09:48:58.988Z,95253.53
2019-03-06T09:51:35.417Z,95249.23
2019-03-06T09:54:18.057Z,95249.65
2019-03-06T09:56:51.654Z,95252.17
2019-03-06T09:59:30.694Z,95256.48
2019-03-06T10:02:13.015Z,95256.48
2019-03-06T10:04:56.958Z,95263.26
2019-03-06T10:07:43.313Z,95262.03
2019-03-06T10:10:32.160Z,95267.56
2019-03-06T10:13:08.458Z,95281.20
2019-03-06T10:15:44.817Z,95282.92
2019-03-06T10:18:15.410Z,95284.59
2019-03-06T10:20:44.010Z,95288.83
2019-03-06T10:23:12.885Z,95289.66
2019-03-06T10:25:41.491Z,95293.94
2019-03-06T10:28:10.027Z,95288.39
2019-03-06T10:30:38.627Z,95297.31
2019-03-06T10:33:07.220Z,95305.78
2019-03-06T10:35:36.043Z,95295.59
2019-03-06T10:38:05.613Z,95294.70
2019-03-06T10:40:34.391Z,95294.70
2019-03-06T10:43:03.558Z,95299.78
2019-03-06T10:45:39.001Z,95289.20
2019-03-06T10:48:02.626Z,95290.87
2019-03-06T10:50:31.330Z,95285.78
2019-03-06T10:53:00.539Z,95293.43
2019-03-06T10:55:29.133Z,95294.67
2019-03-06T10:57:58.500Z,95298.42
2019-03-06T11:00:31.322Z,95295.39
2019-03-06T11:03:01.451Z,95294.50
2019-03-06T11:05:31.824Z,95297.43
2019-03-06T11:08:01.838Z,95299.53
2019-03-06T11:10:32.642Z,95301.21
2019-03-06T11:13:04.126Z,95299.48
2019-03-06T11:15:34.407Z,95301.59
2019-03-06T11:18:03.096Z,95308.38
2019-03-06T11:20:36.631Z,95304.89
2019-03-06T11:23:10.264Z,95306.11
2019-03-06T11:25:40.879Z,95303.09
2019-03-06T11:28:14.340Z,95295.37
2019-03-06T11:30:45.837Z,95310.28
2019-03-06T11:33:15.138Z,95299.23
2019-03-06T11:35:45.419Z,95300.11
2019-03-06T11:38:14.517Z,95291.61
2019-03-06T11:40:43.115Z,95289.50
2019-03-06T11:43:12.345Z,95288.25
2019-03-06T11:45:41.864Z,95287.02
2019-03-06T11:48:11.188Z,95289.16
2019-03-06T11:50:41.075Z,95287.95
2019-03-06T11:53:10.020Z,95282.78
2019-03-06T11:55:39.124Z,95284.93
2019-03-06T11:58:10.376Z,95284.06
2019-03-06T12:00:46.574Z,95277.28
2019-03-06T12:03:17.537Z,95276.44
2019-03-06T12:05:47.319Z,95273.45
2019-03-06T12:08:18.127Z,95267.52
2019-03-06T12:10:46.906Z,95261.13
2019-03-06T12:13:17.108Z,95256.47
2019-03-06T12:15:48.326Z,95248.02
2019-03-06T12:18:22.504Z,95248.89
2019-03-06T12:20:51.396Z,95243.78
2019-03-06T12:23:19.998Z,95240.83
2019-03-06T12:25:48.608Z,95245.09
2019-03-06T12:28:17.508Z,95249.34
2019-03-06T12:30:46.713Z,95245.96
2019-03-06T12:33:26.222Z,95242.57
2019-03-06T12:35:54.903Z,95241.70
2019-03-06T12:38:23.522Z,95240.45
2019-03-06T12:40:52.260Z,95234.14
2019-03-06T12:43:20.937Z,95236.26
2019-03-06T12:46:10.979Z,95240.92
2019-03-06T12:48:39.583Z,95236.66
2019-03-06T12:51:08.230Z,95232.00
2019-03-06T12:53:37.108Z,95238.37
2019-03-06T12:56:06.091Z,95241.79
2019-03-06T12:58:34.699Z,95229.08
2019-03-06T13:01:03.530Z,95231.65
2019-03-06T13:03:32.143Z,95224.88
2019-03-06T13:06:00.781Z,95218.06
2019-03-06T13:08:29.360Z,95218.94
2019-03-06T13:10:58.563Z,95211.72
2019-03-06T13:13:35.278Z,95215.98
2019-03-06T13:15:57.477Z,95209.61
2019-03-06T13:18:26.085Z,95197.33
2019-03-06T13:20:54.708Z,95201.98
2019-03-06T13:23:23.415Z,95206.69
2019-03-06T13:25:52.699Z,95210.04
2019-03-06T13:28:26.036Z,95205.78
2019-03-06T13:30:54.745Z,95201.94
2019-03-06T13:33:24.981Z,95202.80
2019-03-06T13:35:53.927Z,95197.30
2019-03-06T13:38:22.732Z,95193.91
2019-03-06T13:40:51.261Z,95195.59
2019-03-06T13:43:19.847Z,95196.44
2019-03-06T13:45:48.567Z,95192.17
2019-03-06T13:48:17.172Z,95190.47
2019-03-06T13:50:47.072Z,95188.38
2019-03-06T13:53:20.338Z,95184.59
2019-03-06T13:55:47.425Z,95184.16
2019-03-06T13:58:16.131Z,95185.40
2019-03-06T14:00:45.625Z,95185.83
2019-03-06T14:03:14.351Z,95185.40
2019-03-06T14:05:42.952Z,95193.48
2019-03-06T14:08:11.558Z,95183.72
2019-03-06T14:10:40.187Z,95180.30
2019-03-06T14:13:09.002Z,95188.81
2019-03-06T14:15:37.620Z,95178.19
2019-03-06T14:18:11.639Z,95180.30
2019-03-06T14:20:43.189Z,95174.36
2019-03-06T14:23:12.513Z,95165.88
2019-03-06T14:25:41.111Z,95164.61
2019-03-06T14:28:09.720Z,95170.14
2019-03-06T14:30:43.302Z,95165.48
2019-03-06T14:33:11.964Z,95175.23
2019-03-06T14:35:40.739Z,95170.14
2019-03-06T14:38:10.528Z,95168.03
2019-03-06T14:40:39.446Z,95166.31
2019-03-06T14:43:09.073Z,95164.61
2019-03-06T14:45:40.501Z,95166.75
2019-03-06T14:48:08.758Z,95162.13
2019-03-06T14:50:37.560Z,95160.44
2019-03-06T14:53:07.169Z,95157.05
2019-03-06T14:55:36.644Z,95157.89
2019-03-06T14:58:05.785Z,95155.78
2019-03-06T15:00:34.448Z,95167.24
2019-03-06T15:03:03.114Z,95161.31
2019-03-06T15:05:31.751Z,95165.53
2019-03-06T15:08:00.929Z,95159.63
2019-03-06T15:10:31.177Z,95156.67
2019-03-06T15:12:59.793Z,95154.99
2019-03-06T15:15:28.443Z,95150.33
2019-03-06T15:17:57.117Z,95147.38
2019-03-06T15:20:33.366Z,95137.22
2019-03-06T15:23:01.970Z,95140.63
2019-03-06T15:25:31.345Z,95138.11
2019-03-06T15:27:59.961Z,95143.22
2019-03-06T15:30:28.579Z,95148.34
2019-03-06T15:32:57.185Z,95149.20
2019-03-06T15:35:26.519Z,95149.66
2019-03-06T15:37:55.437Z,95147.96
2019-03-06T15:40:30.773Z,95145.03
2019-03-06T15:43:02.686Z,95148.41
2019-03-06T15:45:33.025Z,95142.91
2019-03-06T15:48:01.970Z,95138.28
2019-03-06T15:50:31.163Z,95145.49
2019-03-06T15:52:59.726Z,95142.10
2019-03-06T15:55:29.425Z,95138.73
2019-03-06T15:57:58.733Z,95136.20
2019-03-06T16:00:31.029Z,95138.34
2019-03-06T16:02:59.641Z,95138.34
2019-03-06T16:05:28.307Z,95138.37
2019-03-06T16:07:58.717Z,95133.31
2019-03-06T16:10:28.324Z,95134.18
2019-03-06T16:12:57.231Z,95135.88
2019-03-06T16:15:34.826Z,95139.69
2019-03-06T16:18:06.145Z,95136.30
2019-03-06T16:20:35.058Z,95138.85
2019-03-06T16:23:07.395Z,95141.00
2019-03-06T16:25:38.969Z,95144.34
2019-03-06T16:28:13.814Z,95153.25
2019-03-06T16:30:43.337Z,95154.49
2019-03-06T16:33:11.859Z,95157.45
2019-03-06T16:35:40.803Z,95154.50
2019-03-06T16:38:09.607Z,95150.23
2019-03-06T16:40:38.180Z,95150.23
2019-03-06T16:43:06.919Z,95151.91
2019-03-06T16:45:35.691Z,95154.44
2019-03-06T16:48:05.023Z,95143.84
2019-03-06T16:50:33.801Z,95149.72
2019-03-06T16:53:02.946Z,95154.78
2019-03-06T16:55:31.626Z,95153.08
2019-03-06T16:58:00.866Z,95154.30
2019-03-06T17:00:34.030Z,95153.01
2019-03-06T17:03:04.226Z,95151.27
2019-03-06T17:05:33.540Z,95151.68
2019-03-06T17:08:02.618Z,95141.50
2019-03-06T17:10:33.052Z,95145.69
2019-03-06T17:13:01.897Z,95145.22
2019-03-06T17:15:32.115Z,95146.02
2019-03-06T17:18:01.333Z,95144.30
2019-03-06T17:20:34.869Z,95142.56
2019-03-06T17:23:05.060Z,95153.94
2019-03-06T17:25:34.980Z,95154.72
2019-03-06T17:28:04.179Z,95153.86
2019-03-06T17:30:35.230Z,95157.62
2019-03-06T17:33:09.280Z,95153.78
2019-03-06T17:35:38.818Z,95159.69
2019-03-06T17:38:17.079Z,95163.88
2019-03-06T17:40:46.535Z,95159.64
2019-03-06T17:43:15.636Z,95167.61
2019-03-06T17:45:44.778Z,95165.92
2019-03-06T17:48:13.409Z,95163.33
2019-03-06T17:50:42.025Z,95168.73
2019-03-06T17:53:10.789Z,95172.50
2019-03-06T17:55:39.778Z,95174.14
2019-03-06T17:58:08.368Z,95169.44
2019-03-06T18:00:41.507Z,95168.55
2019-03-06T18:03:12.423Z,95169.32
2019-03-06T18:05:41.364Z,95163.34
2019-03-06T18:08:11.522Z,95167.13
2019-03-06T18:10:40.756Z,95165.41
2019-03-06T18:13:10.003Z,95163.28
2019-03-06T18:15:38.603Z,95154.80
2019-03-06T18:18:07.273Z,95145.92
2019-03-06T18:20:35.927Z,95144.63
2019-03-06T18:23:04.747Z,95143.38
2019-03-06T18:25:33.419Z,95141.66
2019-03-06T18:28:01.965Z,95139.09
2019-03-06T18:30:30.577Z,95134.40
2019-03-06T18:32:59.762Z,95135.24
2019-03-06T18:35:28.660Z,95131.82
2019-03-06T18:37:57.403Z,95133.91
2019-03-06T18:40:26.788Z,95130.05
2019-03-06T18:42:55.569Z,95130.06
2019-03-06T18:45:24.220Z,95132.56
2019-03-06T18:47:53.122Z,95131.70
2019-03-06T18:50:26.008Z,95129.13
2019-03-06T18:52:54.843Z,95128.64
2019-03-06T18:55:23.789Z,95130.78
2019-03-06T18:57:52.417Z,95124.43
2019-03-06T19:00:22.356Z,95129.06
2019-03-06T19:02:51.183Z,95119.73
2019-03-06T19:05:20.929Z,95115.89
2019-03-06T19:07:50.785Z,95114.61
2019-03-06T19:10:23.789Z,95112.45
2019-03-06T19:12:52.868Z,95108.20
2019-03-06T19:15:26.563Z,95098.91
2019-03-06T19:17:55.425Z,95095.97
2019-03-06T19:20:24.774Z,95104.36
2019-03-06T19:22:54.818Z,95098.07
2019-03-06T19:25:24.207Z,95098.49
2019-03-06T19:27:52.921Z,95098.10
2019-03-06T19:30:23.498Z,95105.26
2019-03-06T19:32:52.231Z,95103.60
2019-03-06T19:35:27.932Z,95103.16
2019-03-06T19:37:56.567Z,95107.36
2019-03-06T19:40:25.908Z,95112.00
2019-03-06T19:42:54.696Z,95110.73
2019-03-06T19:45:24.570Z,95108.20
2019-03-06T19:47:53.412Z,95101.89
2019-03-06T19:50:25.430Z,95097.28
2019-03-06T19:52:54.099Z,95098.94
2019-03-06T19:55:23.566Z,95096.02
2019-03-06T19:57:56.749Z,95093.49
2019-03-06T20:00:29.284Z,95092.22
2019-03-06T20:02:58.244Z,95098.15
2019-03-06T20:05:34.778Z,95094.78
2019-03-06T20:08:04.941Z,95086.78
2019-03-06T20:10:33.562Z,95087.22
2019-03-06T20:13:02.263Z,95080.51
2019-03-06T20:15:31.082Z,95086.80
2019-03-06T20:17:59.970Z,95081.77
2019-03-06T20:20:28.665Z,95080.92
2019-03-06T20:22:57.805Z,95087.67
2019-03-06T20:25:26.817Z,95079.69
2019-03-06T20:27:55.563Z,95079.69
2019-03-06T20:30:26.028Z,95075.11
2019-03-06T20:32:57.041Z,95079.81
2019-03-06T20:35:27.048Z,95076.88
2019-03-06T20:37:56.732Z,95072.32
2019-03-06T20:40:25.644Z,95067.30
2019-03-06T20:42:54.496Z,95073.66
2019-03-06T20:45:23.249Z,95074.58
2019-03-06T20:47:51.968Z,95071.67
2019-03-06T20:50:21.181Z,95072.58
2019-03-06T20:52:50.458Z,95070.52
2019-03-06T20:55:19.850Z,95062.09
2019-03-06T20:57:48.481Z,95060.80
2019-03-06T21:00:23.588Z,95062.53
2019-03-06T21:02:52.303Z,95057.48
2019-03-06T21:05:21.354Z,95059.62
2019-03-06T21:07:49.963Z,95055.42
2019-03-06T21:10:19.890Z,95057.13
2019-03-06T21:12:48.811Z,95048.69
2019-03-06T21:15:19.198Z,95044.48
2019-03-06T21:17:47.914Z,95052.08
2019-03-06T21:20:18.401Z,95059.66
2019-03-06T21:22:47.346Z,95049.98
2019-03-06T21:25:17.968Z,95057.18
2019-03-06T21:27:46.636Z,95051.27
2019-03-06T21:30:43.149Z,95050.00
2019-03-06T21:33:11.830Z,95050.45
2019-03-06T21:35:40.615Z,95050.86
2019-03-06T21:38:09.294Z,95047.88
2019-03-06T21:40:37.976Z,95054.65
2019-03-06T21:43:06.657Z,95039.84
2019-03-06T21:45:35.393Z,95046.62
2019-03-06T21:48:04.123Z,95046.59
2019-03-06T21:50:32.735Z,95052.48
2019-03-06T21:53:01.491Z,95051.20
2019-03-06T21:55:30.664Z,95045.67
2019-03-06T21:57:59.432Z,95041.06
2019-03-06T22:00:28.088Z,95036.42
2019-03-06T22:02:56.640Z,95032.20
2019-03-06T22:05:25.287Z,95032.20
2019-03-06T22:07:53.966Z,95033.05
2019-03-06T22:10:23.159Z,95028.41
2019-03-06T22:12:51.864Z,95023.36
2019-03-06T22:15:22.309Z,95017.52
2019-03-06T22:17:50.916Z,95014.61
2019-03-06T22:20:19.985Z,95018.03
2019-03-06T22:22:48.656Z,95012.14
2019-03-06T22:25:18.359Z,95004.55
2019-03-06T22:27:47.015Z,94992.31
2019-03-06T22:30:22.522Z,94988.96
2019-03-06T22:32:51.396Z,94987.31
2019-03-06T22:35:20.012Z,94992.40
2019-03-06T22:37:48.641Z,94994.95
2019-03-06T22:40:19.749Z,94988.63
2019-03-06T22:42:48.657Z,94978.09
2019-03-06T22:45:18.849Z,94986.95
2019-03-06T22:47:47.817Z,94984.42
2019-03-06T22:50:20.066Z,94981.46
2019-03-06T22:52:49.446Z,94983.59
2019-03-06T22:55:19.480Z,94977.66
2019-03-06T22:57:48.287Z,94981.88
2019-03-06T23:00:32.661Z,94979.36
2019-03-06T23:03:01.585Z,94980.20
2019-03-06T23:05:32.497Z,94984.45
2019-03-06T23:08:02.048Z,94980.64
2019-03-06T23:10:30.779Z,94979.81
2019-03-06T23:12:59.411Z,94964.63
2019-03-06T23:15:28.025Z,94971.37
2019-03-06T23:17:57.989Z,94967.16
2019-03-06T23:20:26.602Z,94968.02
2019-03-06T23:22:55.855Z,94960.42
2019-03-06T23:25:24.542Z,94968.86
2019-03-06T23:27:53.245Z,94956.19
2019-03-06T23:30:21.864Z,94953.67
2019-03-06T23:32:50.674Z,94948.61
2019-03-06T23:35:19.341Z,94945.63
2019-03-06T23:37:48.046Z,94940.58
2019-03-06T23:40:16.703Z,94941.42
2019-03-06T23:42:47.775Z,94933.37
2019-03-06T23:45:15.800Z,94936.36
2019-03-06T23:47:44.262Z,94932.09
2019-03-06T23:50:13.484Z,94924.92
2019-03-06T23:52:59.866Z,94922.81
2019-03-06T23:55:30.107Z,94913.10
2019-03-06T23:57:58.928Z,94912.70
